MSC Alessia — DAQZ — position and weather

sailwx.info

Track history (hours):
 
Tides and Currents Weather Stations Pressure Air Temp Water Temp Dewpoint Dewpoint Depression Visibility Wind Speed Wind Dir Waves Ship Positions

MSC Alessia

Last reported at 2016-Nov-17 14:32 UTC. Time now 2019-Jul-21 21:05 UTC.
Position N 40°40' W 074°09'.
Warning: this ship's position is years out of date!

Length 300 m; beam 40 m; draft 14.5 m.

Type: Ship. MMSI: 211394240.

Date/timePositionNaut miles runAvg speedWind from/ knotsBaromVisibWave heightAir tempDewpointWater temp
2016-Nov-17 14:32N 40°40' W 074°09'0 0.0
2016-Nov-17 13:29N 40°40' W 074°09'0 0.0
2016-Nov-17 12:32N 40°40' W 074°09'0 0.0
2016-Nov-17 11:32N 40°40' W 074°09'0 0.0
2016-Nov-17 08:32N 40°40' W 074°09'0 0.0
2016-Nov-17 06:32N 40°40' W 074°09'0 0.0
2016-Nov-17 02:32N 40°40' W 074°09'0 0.0
2016-Nov-16 23:31N 40°40' W 074°09'0 0.0
2016-Nov-16 22:31N 40°40' W 074°09'0 0.0
2016-Nov-16 20:28N 40°40' W 074°09'0 0.0
2016-Nov-16 19:31N 40°40' W 074°09'0 0.0
2016-Nov-16 18:31N 40°40' W 074°09'0 0.0
2016-Nov-16 17:31N 40°40' W 074°09'0 0.0
2016-Nov-16 16:33N 40°40' W 074°09'24 5.7
2016-Nov-16 12:22N 40°27' W 073°42'  
2016-Nov-11 10:14N 38°06' W 031°47'1317.0
2016-Nov-11 09:29N 38°06' W 031°31'4615.7
2016-Nov-11 06:33N 38°06' W 030°32'1717.0
2016-Nov-11 05:33N 38°07' W 030°11'1817.5
2016-Nov-11 04:33N 38°07' W 029°49'1717.3
2016-Nov-11 03:33N 38°07' W 029°27'1717.3
2016-Nov-11 02:33N 38°07' W 029°05'1717.5
2016-Nov-11 01:33N 38°07' W 028°42'1817.6
2016-Nov-11 00:33N 38°07' W 028°20'1817.7
2016-Nov-10 23:33N 38°07' W 027°57'1717.3
2016-Nov-10 22:33N 38°07' W 027°36'3517.4
2016-Nov-10 20:34N 38°07' W 026°51'3417.1
2016-Nov-10 18:33N 38°07' W 026°08'3115.7
2016-Nov-10 16:34N 38°07' W 025°28'1615.8
2016-Nov-10 15:34N 38°07' W 025°08'72616.5
2016-Nov-08 19:28N 37°54' W 009°46'1516.4
2016-Nov-08 18:33N 37°55' W 009°27'1716.5
2016-Nov-08 17:33N 37°54' W 009°06'12 6.0
2016-Nov-08 15:31N 37°56' W 008°51'0 0.0
2016-Nov-08 09:32N 37°56' W 008°51'0 0.0
2016-Nov-08 06:32N 37°56' W 008°51'0 0.0
2016-Nov-08 04:31N 37°56' W 008°51'0 0.0
2016-Nov-08 00:33N 37°56' W 008°51'3 2.5
2016-Nov-07 23:33N 37°53' W 008°50'41 9.9
2016-Nov-07 19:25N 37°16' W 009°12'  
Track history (hours):
 
Tides and Currents Weather Stations Pressure Air Temp Water Temp Dewpoint Dewpoint Depression Visibility Wind Speed Wind Dir Waves Ship Positions

MSC Alessia

Last reported at 2016-Nov-17 14:32 UTC. Time now 2019-Jul-21 21:05 UTC.
Position N 40°40' W 074°09'.
Warning: this ship's position is years out of date!

Length 300 m; beam 40 m; draft 14.5 m.

Type: Ship. MMSI: 211394240.

Date/timePositionNaut miles runAvg speedWind from/ knotsBaromVisibWave heightAir tempDewpointWater temp
2016-Nov-17 14:32N 40°40' W 074°09'0 0.0
2016-Nov-17 13:29N 40°40' W 074°09'0 0.0
2016-Nov-17 12:32N 40°40' W 074°09'0 0.0
2016-Nov-17 11:32N 40°40' W 074°09'0 0.0
2016-Nov-17 08:32N 40°40' W 074°09'0 0.0
2016-Nov-17 06:32N 40°40' W 074°09'0 0.0
2016-Nov-17 02:32N 40°40' W 074°09'0 0.0
2016-Nov-16 23:31N 40°40' W 074°09'0 0.0
2016-Nov-16 22:31N 40°40' W 074°09'0 0.0
2016-Nov-16 20:28N 40°40' W 074°09'0 0.0
2016-Nov-16 19:31N 40°40' W 074°09'0 0.0
2016-Nov-16 18:31N 40°40' W 074°09'0 0.0
2016-Nov-16 17:31N 40°40' W 074°09'0 0.0
2016-Nov-16 16:33N 40°40' W 074°09'24 5.7
2016-Nov-16 12:22N 40°27' W 073°42'  
2016-Nov-11 10:14N 38°06' W 031°47'1317.0
2016-Nov-11 09:29N 38°06' W 031°31'4615.7
2016-Nov-11 06:33N 38°06' W 030°32'1717.0
2016-Nov-11 05:33N 38°07' W 030°11'1817.5
2016-Nov-11 04:33N 38°07' W 029°49'1717.3
2016-Nov-11 03:33N 38°07' W 029°27'1717.3
2016-Nov-11 02:33N 38°07' W 029°05'1717.5
2016-Nov-11 01:33N 38°07' W 028°42'1817.6
2016-Nov-11 00:33N 38°07' W 028°20'1817.7
2016-Nov-10 23:33N 38°07' W 027°57'1717.3
2016-Nov-10 22:33N 38°07' W 027°36'3517.4
2016-Nov-10 20:34N 38°07' W 026°51'3417.1
2016-Nov-10 18:33N 38°07' W 026°08'3115.7
2016-Nov-10 16:34N 38°07' W 025°28'1615.8
2016-Nov-10 15:34N 38°07' W 025°08'72616.5
2016-Nov-08 19:28N 37°54' W 009°46'1516.4
2016-Nov-08 18:33N 37°55' W 009°27'1716.5
2016-Nov-08 17:33N 37°54' W 009°06'12 6.0
2016-Nov-08 15:31N 37°56' W 008°51'0 0.0
2016-Nov-08 09:32N 37°56' W 008°51'0 0.0
2016-Nov-08 06:32N 37°56' W 008°51'0 0.0
2016-Nov-08 04:31N 37°56' W 008°51'0 0.0
2016-Nov-08 00:33N 37°56' W 008°51'3 2.5
2016-Nov-07 23:33N 37°53' W 008°50'41 9.9
2016-Nov-07 19:25N 37°16' W 009°12'  

Dump ship's entire track history